sensor_id;sensor_type;location;lat;lon;timestamp;pressure;altitude;pressure_sealevel;temperature;humidity
55068;BME280;40965;52.368;9.712;2022-11-04T00:00:05;99396.03;;;10.48;100.00
55068;BME280;40965;52.368;9.712;2022-11-04T00:02:32;99398.56;;;10.51;100.00
55068;BME280;40965;52.368;9.712;2022-11-04T00:04:59;99404.59;;;10.53;100.00
55068;BME280;40965;52.368;9.712;2022-11-04T00:07:25;99397.56;;;10.55;100.00
55068;BME280;40965;52.368;9.712;2022-11-04T00:10:09;99382.69;;;10.57;100.00
55068;BME280;40965;52.368;9.712;2022-11-04T00:12:36;99374.81;;;10.57;100.00
55068;BME280;40965;52.368;9.712;2022-11-04T00:15:02;99381.75;;;10.58;100.00
55068;BME280;40965;52.368;9.712;2022-11-04T00:17:42;99387.88;;;10.59;100.00
55068;BME280;40965;52.368;9.712;2022-11-04T00:20:09;99389.53;;;10.62;100.00
55068;BME280;40965;52.368;9.712;2022-11-04T00:22:53;99403.47;;;10.62;100.00
55068;BME280;40965;52.368;9.712;2022-11-04T00:25:37;99397.34;;;10.63;100.00
55068;BME280;40965;52.368;9.712;2022-11-04T00:28:21;99405.06;;;10.68;100.00
55068;BME280;40965;52.368;9.712;2022-11-04T00:31:07;99403.25;;;10.70;100.00
55068;BME280;40965;52.368;9.712;2022-11-04T00:33:49;99400.56;;;10.71;100.00
55068;BME280;40965;52.368;9.712;2022-11-04T00:36:17;99406.69;;;10.72;100.00
55068;BME280;40965;52.368;9.712;2022-11-04T00:38:44;99410.16;;;10.72;100.00
55068;BME280;40965;52.368;9.712;2022-11-04T00:41:10;99413.59;;;10.74;100.00
55068;BME280;40965;52.368;9.712;2022-11-04T00:43:58;99409.19;;;10.75;100.00
55068;BME280;40965;52.368;9.712;2022-11-04T00:46:27;99414.44;;;10.75;100.00
55068;BME280;40965;52.368;9.712;2022-11-04T00:48:55;99417.81;;;10.79;100.00
55068;BME280;40965;52.368;9.712;2022-11-04T00:51:22;99423.06;;;10.79;100.00
55068;BME280;40965;52.368;9.712;2022-11-04T00:53:50;99424.84;;;10.78;100.00
55068;BME280;40965;52.368;9.712;2022-11-04T00:56:17;99420.50;;;10.77;100.00
55068;BME280;40965;52.368;9.712;2022-11-04T00:58:44;99429.13;;;10.79;100.00
55068;BME280;40965;52.368;9.712;2022-11-04T01:01:12;99436.19;;;10.77;100.00
55068;BME280;40965;52.368;9.712;2022-11-04T01:03:42;99439.84;;;10.71;100.00
55068;BME280;40965;52.368;9.712;2022-11-04T01:06:09;99439.31;;;10.58;100.00
55068;BME280;40965;52.368;9.712;2022-11-04T01:08:36;99430.88;;;10.49;100.00
55068;BME280;40965;52.368;9.712;2022-11-04T01:11:04;99435.50;;;10.40;100.00
55068;BME280;40965;52.368;9.712;2022-11-04T01:13:33;99438.25;;;10.34;100.00
55068;BME280;40965;52.368;9.712;2022-11-04T01:16:05;99433.13;;;10.30;100.00
55068;BME280;40965;52.368;9.712;2022-11-04T01:18:33;99434.97;;;10.26;100.00
55068;BME280;40965;52.368;9.712;2022-11-04T01:21:01;99440.28;;;10.23;100.00
55068;BME280;40965;52.368;9.712;2022-11-04T01:23:28;99433.31;;;10.22;100.00
55068;BME280;40965;52.368;9.712;2022-11-04T01:25:55;99429.97;;;10.18;100.00
55068;BME280;40965;52.368;9.712;2022-11-04T01:28:22;99438.59;;;10.20;100.00
55068;BME280;40965;52.368;9.712;2022-11-04T01:30:48;99440.38;;;10.20;100.00
55068;BME280;40965;52.368;9.712;2022-11-04T01:33:15;99437.81;;;10.17;100.00
55068;BME280;40965;52.368;9.712;2022-11-04T01:35:42;99441.38;;;10.16;100.00
55068;BME280;40965;52.368;9.712;2022-11-04T01:38:08;99429.13;;;10.16;100.00
55068;BME280;40965;52.368;9.712;2022-11-04T01:40:36;99429.13;;;10.16;100.00
55068;BME280;40965;52.368;9.712;2022-11-04T01:43:12;99429.97;;;10.17;100.00
55068;BME280;40965;52.368;9.712;2022-11-04T01:45:44;99423.91;;;10.16;100.00
55068;BME280;40965;52.368;9.712;2022-11-04T01:48:29;99433.47;;;10.17;100.00
55068;BME280;40965;52.368;9.712;2022-11-04T01:50:58;99456.97;;;10.19;100.00
55068;BME280;40965;52.368;9.712;2022-11-04T01:53:27;99448.22;;;10.20;100.00
55068;BME280;40965;52.368;9.712;2022-11-04T01:55:59;99460.41;;;10.21;100.00
55068;BME280;40965;52.368;9.712;2022-11-04T01:58:33;99452.56;;;10.21;100.00
55068;BME280;40965;52.368;9.712;2022-11-04T02:01:01;99456.03;;;10.21;100.00
55068;BME280;40965;52.368;9.712;2022-11-04T02:03:34;99440.31;;;10.21;100.00
55068;BME280;40965;52.368;9.712;2022-11-04T02:06:04;99443.00;;;10.20;100.00
55068;BME280;40965;52.368;9.712;2022-11-04T02:08:31;99446.50;;;10.19;100.00
55068;BME280;40965;52.368;9.712;2022-11-04T02:11:00;99438.59;;;10.20;100.00
55068;BME280;40965;52.368;9.712;2022-11-04T02:13:32;99433.41;;;10.19;100.00
55068;BME280;40965;52.368;9.712;2022-11-04T02:16:18;99440.38;;;10.20;100.00
55068;BME280;40965;52.368;9.712;2022-11-04T02:34:21;99422.88;;;10.22;100.00
55068;BME280;40965;52.368;9.712;2022-11-04T02:39:50;99431.66;;;10.19;100.00
55068;BME280;40965;52.368;9.712;2022-11-04T02:45:15;99450.69;;;10.24;100.00
55068;BME280;40965;52.368;9.712;2022-11-04T02:47:58;99439.22;;;10.30;100.00
55068;BME280;40965;52.368;9.712;2022-11-04T02:50:44;99442.59;;;10.35;100.00
55068;BME280;40965;52.368;9.712;2022-11-04T02:53:33;99440.75;;;10.39;100.00
55068;BME280;40965;52.368;9.712;2022-11-04T02:56:04;99433.00;;;10.36;100.00
55068;BME280;40965;52.368;9.712;2022-11-04T02:58:58;99447.84;;;10.35;100.00
55068;BME280;40965;52.368;9.712;2022-11-04T03:01:32;99445.22;;;10.35;100.00
55068;BME280;40965;52.368;9.712;2022-11-04T03:04:06;99445.19;;;10.37;100.00
55068;BME280;40965;52.368;9.712;2022-11-04T03:06:37;99450.47;;;10.35;100.00
55068;BME280;40965;52.368;9.712;2022-11-04T03:09:05;99449.50;;;10.38;100.00
55068;BME280;40965;52.368;9.712;2022-11-04T03:11:34;99456.53;;;10.36;100.00
55068;BME280;40965;52.368;9.712;2022-11-04T03:14:05;99458.13;;;10.41;100.00
55068;BME280;40965;52.368;9.712;2022-11-04T03:16:43;99451.16;;;10.42;100.00
55068;BME280;40965;52.368;9.712;2022-11-04T03:19:15;99465.63;;;10.54;100.00
55068;BME280;40965;52.368;9.712;2022-11-04T03:21:53;99474.47;;;10.50;100.00
55068;BME280;40965;52.368;9.712;2022-11-04T03:24:22;99483.28;;;10.47;100.00
55068;BME280;40965;52.368;9.712;2022-11-04T03:30:22;99495.72;;;10.37;100.00
55068;BME280;40965;52.368;9.712;2022-11-04T03:33:03;99504.53;;;10.33;100.00
55068;BME280;40965;52.368;9.712;2022-11-04T03:35:33;99513.59;;;10.20;100.00
55068;BME280;40965;52.368;9.712;2022-11-04T03:38:00;99515.44;;;10.16;100.00
55068;BME280;40965;52.368;9.712;2022-11-04T03:40:27;99516.41;;;10.12;100.00
55068;BME280;40965;52.368;9.712;2022-11-04T03:43:01;99532.06;;;10.14;100.00
55068;BME280;40965;52.368;9.712;2022-11-04T03:45:35;99529.56;;;10.09;100.00
55068;BME280;40965;52.368;9.712;2022-11-04T03:48:02;99533.88;;;10.10;100.00
55068;BME280;40965;52.368;9.712;2022-11-04T03:50:31;99549.66;;;10.07;100.00
55068;BME280;40965;52.368;9.712;2022-11-04T03:53:00;99555.91;;;10.01;100.00
55068;BME280;40965;52.368;9.712;2022-11-04T03:55:43;99564.78;;;9.94;100.00
55068;BME280;40965;52.368;9.712;2022-11-04T03:58:43;99564.56;;;10.03;100.00
55068;BME280;40965;52.368;9.712;2022-11-04T04:01:26;99570.72;;;10.01;100.00
55068;BME280;40965;52.368;9.712;2022-11-04T04:04:25;99574.34;;;9.95;100.00
55068;BME280;40965;52.368;9.712;2022-11-04T04:07:00;99590.00;;;9.97;100.00
55068;BME280;40965;52.368;9.712;2022-11-04T04:09:37;99585.59;;;9.99;100.00
55068;BME280;40965;52.368;9.712;2022-11-04T04:12:19;99574.22;;;10.00;100.00
55068;BME280;40965;52.368;9.712;2022-11-04T04:14:53;99582.91;;;10.02;100.00
55068;BME280;40965;52.368;9.712;2022-11-04T04:17:31;99590.75;;;10.02;100.00
55068;BME280;40965;52.368;9.712;2022-11-04T04:20:11;99585.66;;;9.96;100.00
55068;BME280;40965;52.368;9.712;2022-11-04T04:22:49;99584.75;;;9.97;100.00
55068;BME280;40965;52.368;9.712;2022-11-04T04:25:25;99598.81;;;9.92;100.00
55068;BME280;40965;52.368;9.712;2022-11-04T04:28:12;99598.84;;;9.91;100.00
55068;BME280;40965;52.368;9.712;2022-11-04T04:30:42;99596.06;;;9.99;99.47
55068;BME280;40965;52.368;9.712;2022-11-04T04:33:14;99605.69;;;9.97;100.00
55068;BME280;40965;52.368;9.712;2022-11-04T04:35:46;99617.06;;;9.94;100.00
55068;BME280;40965;52.368;9.712;2022-11-04T04:38:22;99613.63;;;9.92;100.00
55068;BME280;40965;52.368;9.712;2022-11-04T04:41:17;99621.44;;;9.93;100.00
55068;BME280;40965;52.368;9.712;2022-11-04T04:44:09;99614.59;;;9.88;100.00
55068;BME280;40965;52.368;9.712;2022-11-04T04:46:59;99619.03;;;9.84;100.00
55068;BME280;40965;52.368;9.712;2022-11-04T04:49:27;99621.72;;;9.81;100.00
55068;BME280;40965;52.368;9.712;2022-11-04T04:52:01;99613.09;;;9.76;100.00
55068;BME280;40965;52.368;9.712;2022-11-04T04:54:28;99612.31;;;9.74;100.00
55068;BME280;40965;52.368;9.712;2022-11-04T04:56:55;99602.78;;;9.71;100.00
55068;BME280;40965;52.368;9.712;2022-11-04T04:59:21;99600.22;;;9.68;100.00
55068;BME280;40965;52.368;9.712;2022-11-04T05:01:48;99604.72;;;9.62;100.00
55068;BME280;40965;52.368;9.712;2022-11-04T05:04:14;99603.22;;;9.50;100.00
55068;BME280;40965;52.368;9.712;2022-11-04T05:06:41;99605.91;;;9.47;100.00
55068;BME280;40965;52.368;9.712;2022-11-04T05:09:07;99614.66;;;9.46;100.00
55068;BME280;40965;52.368;9.712;2022-11-04T05:11:34;99625.03;;;9.49;100.00
55068;BME280;40965;52.368;9.712;2022-11-04T05:14:00;99627.78;;;9.41;100.00
55068;BME280;40965;52.368;9.712;2022-11-04T05:16:27;99638.28;;;9.39;100.00
55068;BME280;40965;52.368;9.712;2022-11-04T05:18:54;99632.25;;;9.37;100.00
55068;BME280;40965;52.368;9.712;2022-11-04T05:21:20;99638.19;;;9.42;100.00
55068;BME280;40965;52.368;9.712;2022-11-04T05:23:47;99641.03;;;9.32;100.00
55068;BME280;40965;52.368;9.712;2022-11-04T05:26:13;99648.22;;;9.20;100.00
55068;BME280;40965;52.368;9.712;2022-11-04T05:28:40;99650.09;;;9.15;100.00
55068;BME280;40965;52.368;9.712;2022-11-04T05:31:07;99665.78;;;9.12;100.00
55068;BME280;40965;52.368;9.712;2022-11-04T05:33:33;99674.59;;;9.06;100.00
55068;BME280;40965;52.368;9.712;2022-11-04T05:36:12;99675.53;;;9.04;100.00
55068;BME280;40965;52.368;9.712;2022-11-04T05:38:41;99669.50;;;9.00;100.00
55068;BME280;40965;52.368;9.712;2022-11-04T05:41:10;99669.59;;;8.94;100.00
55068;BME280;40965;52.368;9.712;2022-11-04T05:43:50;99649.78;;;8.85;100.00
55068;BME280;40965;52.368;9.712;2022-11-04T05:46:19;99672.31;;;8.89;100.00
55068;BME280;40965;52.368;9.712;2022-11-04T05:48:46;99671.41;;;8.92;100.00
55068;BME280;40965;52.368;9.712;2022-11-04T05:51:17;99685.41;;;8.86;100.00
55068;BME280;40965;52.368;9.712;2022-11-04T05:53:45;99683.53;;;8.94;100.00
55068;BME280;40965;52.368;9.712;2022-11-04T05:56:12;99679.19;;;8.93;100.00
55068;BME280;40965;52.368;9.712;2022-11-04T05:58:38;99683.56;;;8.93;100.00
55068;BME280;40965;52.368;9.712;2022-11-04T06:01:30;99691.38;;;8.91;100.00
55068;BME280;40965;52.368;9.712;2022-11-04T06:03:59;99683.69;;;8.84;100.00
55068;BME280;40965;52.368;9.712;2022-11-04T06:06:29;99699.31;;;8.87;100.00
55068;BME280;40965;52.368;9.712;2022-11-04T06:08:58;99705.19;;;9.00;100.00
55068;BME280;40965;52.368;9.712;2022-11-04T06:11:27;99702.50;;;9.03;100.00
55068;BME280;40965;52.368;9.712;2022-11-04T06:13:55;99706.81;;;9.05;100.00
55068;BME280;40965;52.368;9.712;2022-11-04T06:16:23;99704.25;;;9.04;100.00
55068;BME280;40965;52.368;9.712;2022-11-04T06:18:50;99706.03;;;9.00;100.00
55068;BME280;40965;52.368;9.712;2022-11-04T06:21:26;99712.31;;;8.90;100.00
55068;BME280;40965;52.368;9.712;2022-11-04T06:24:01;99725.44;;;8.85;100.00
55068;BME280;40965;52.368;9.712;2022-11-04T06:26:28;99739.53;;;8.73;100.00
55068;BME280;40965;52.368;9.712;2022-11-04T06:28:56;99747.50;;;8.64;100.00
55068;BME280;40965;52.368;9.712;2022-11-04T06:31:22;99752.78;;;8.61;100.00
55068;BME280;40965;52.368;9.712;2022-11-04T06:33:49;99758.81;;;8.66;100.00
55068;BME280;40965;52.368;9.712;2022-11-04T06:36:15;99766.47;;;8.75;100.00
55068;BME280;40965;52.368;9.712;2022-11-04T06:38:42;99765.38;;;8.89;100.00
55068;BME280;40965;52.368;9.712;2022-11-04T06:41:14;99775.59;;;9.03;100.00
55068;BME280;40965;52.368;9.712;2022-11-04T06:43:41;99783.25;;;9.14;100.00
55068;BME280;40965;52.368;9.712;2022-11-04T06:46:36;99792.63;;;9.27;100.00
55068;BME280;40965;52.368;9.712;2022-11-04T06:49:05;99807.25;;;9.36;100.00
55068;BME280;40965;52.368;9.712;2022-11-04T06:51:35;99813.22;;;9.44;100.00
55068;BME280;40965;52.368;9.712;2022-11-04T06:54:02;99815.72;;;9.49;100.00
55068;BME280;40965;52.368;9.712;2022-11-04T06:56:29;99796.53;;;9.51;100.00
55068;BME280;40965;52.368;9.712;2022-11-04T06:58:56;99792.13;;;9.55;99.38
55068;BME280;40965;52.368;9.712;2022-11-04T07:01:27;99786.81;;;9.58;98.91
55068;BME280;40965;52.368;9.712;2022-11-04T07:03:57;99782.44;;;9.60;98.44
55068;BME280;40965;52.368;9.712;2022-11-04T07:06:26;99778.06;;;9.62;98.07
55068;BME280;40965;52.368;9.712;2022-11-04T07:08:57;99780.59;;;9.65;96.54
55068;BME280;40965;52.368;9.712;2022-11-04T07:11:26;99784.94;;;9.66;95.63
55068;BME280;40965;52.368;9.712;2022-11-04T07:13:57;99792.78;;;9.66;94.41
55068;BME280;40965;52.368;9.712;2022-11-04T07:16:23;99800.66;;;9.63;94.67
55068;BME280;40965;52.368;9.712;2022-11-04T07:18:50;99800.63;;;9.66;93.79
55068;BME280;40965;52.368;9.712;2022-11-04T07:21:18;99794.59;;;9.63;93.96
55068;BME280;40965;52.368;9.712;2022-11-04T07:23:44;99803.38;;;9.58;94.30
55068;BME280;40965;52.368;9.712;2022-11-04T07:26:11;99805.91;;;9.62;93.51
55068;BME280;40965;52.368;9.712;2022-11-04T07:28:38;99812.78;;;9.67;92.80
55068;BME280;40965;52.368;9.712;2022-11-04T07:31:07;99806.63;;;9.71;92.12
55068;BME280;40965;52.368;9.712;2022-11-04T07:33:37;99804.81;;;9.73;92.26
55068;BME280;40965;52.368;9.712;2022-11-04T07:36:05;99811.72;;;9.77;91.15
55068;BME280;40965;52.368;9.712;2022-11-04T07:38:33;99816.81;;;9.84;90.75
55068;BME280;40965;52.368;9.712;2022-11-04T07:40:59;99820.19;;;9.90;90.78
55068;BME280;40965;52.368;9.712;2022-11-04T07:43:27;99822.72;;;9.95;90.41
55068;BME280;40965;52.368;9.712;2022-11-04T07:46:08;99828.78;;;9.96;89.65
55068;BME280;40965;52.368;9.712;2022-11-04T07:48:36;99825.38;;;9.93;89.12
55068;BME280;40965;52.368;9.712;2022-11-04T07:51:05;99832.28;;;9.96;89.37
55068;BME280;40965;52.368;9.712;2022-11-04T07:53:33;99833.06;;;10.00;89.55
55068;BME280;40965;52.368;9.712;2022-11-04T07:56:05;99838.25;;;10.03;89.66
55068;BME280;40965;52.368;9.712;2022-11-04T07:58:33;99835.53;;;10.07;89.20
55068;BME280;40965;52.368;9.712;2022-11-04T08:01:01;99845.94;;;10.10;87.89
55068;BME280;40965;52.368;9.712;2022-11-04T08:03:29;99851.13;;;10.12;87.23
55068;BME280;40965;52.368;9.712;2022-11-04T08:05:58;99844.16;;;10.13;86.74
55068;BME280;40965;52.368;9.712;2022-11-04T08:08:26;99846.72;;;10.14;86.53
55068;BME280;40965;52.368;9.712;2022-11-04T08:10:55;99852.00;;;10.13;86.02
55068;BME280;40965;52.368;9.712;2022-11-04T08:13:28;99859.78;;;10.14;86.25
55068;BME280;40965;52.368;9.712;2022-11-04T08:16:00;99872.00;;;10.15;86.57
55068;BME280;40965;52.368;9.712;2022-11-04T08:18:27;99864.09;;;10.17;86.08
55068;BME280;40965;52.368;9.712;2022-11-04T08:20:54;99873.69;;;10.18;86.70
55068;BME280;40965;52.368;9.712;2022-11-04T08:23:20;99881.53;;;10.18;86.56
55068;BME280;40965;52.368;9.712;2022-11-04T08:25:47;99887.53;;;10.23;86.49
55068;BME280;40965;52.368;9.712;2022-11-04T08:28:13;99883.97;;;10.29;85.56
55068;BME280;40965;52.368;9.712;2022-11-04T08:30:57;99877.00;;;10.27;85.68
55068;BME280;40965;52.368;9.712;2022-11-04T08:33:30;99882.31;;;10.23;85.78
55068;BME280;40965;52.368;9.712;2022-11-04T08:36:00;99879.69;;;10.23;85.71
55068;BME280;40965;52.368;9.712;2022-11-04T08:38:29;99887.50;;;10.26;86.38
55068;BME280;40965;52.368;9.712;2022-11-04T08:41:00;99889.31;;;10.22;86.01
55068;BME280;40965;52.368;9.712;2022-11-04T08:43:27;99890.19;;;10.21;86.66
55068;BME280;40965;52.368;9.712;2022-11-04T08:45:55;99886.56;;;10.27;86.65
55068;BME280;40965;52.368;9.712;2022-11-04T08:48:21;99882.25;;;10.26;86.09
55068;BME280;40965;52.368;9.712;2022-11-04T08:50:53;99886.63;;;10.25;86.69
55068;BME280;40965;52.368;9.712;2022-11-04T08:53:20;99880.47;;;10.28;86.38
55068;BME280;40965;52.368;9.712;2022-11-04T08:55:47;99876.88;;;10.35;86.21
55068;BME280;40965;52.368;9.712;2022-11-04T08:58:14;99877.72;;;10.36;86.07
55068;BME280;40965;52.368;9.712;2022-11-04T09:00:41;99885.34;;;10.47;86.32
55068;BME280;40965;52.368;9.712;2022-11-04T09:03:08;99887.88;;;10.51;85.51
55068;BME280;40965;52.368;9.712;2022-11-04T09:05:38;99890.41;;;10.54;84.92
55068;BME280;40965;52.368;9.712;2022-11-04T09:08:11;99892.25;;;10.51;84.63
55068;BME280;40965;52.368;9.712;2022-11-04T09:10:45;99883.75;;;10.39;86.02
55068;BME280;40965;52.368;9.712;2022-11-04T09:13:14;99889.94;;;10.34;86.47
55068;BME280;40965;52.368;9.712;2022-11-04T09:15:41;99889.19;;;10.27;86.85
55068;BME280;40965;52.368;9.712;2022-11-04T09:18:08;99891.03;;;10.23;86.89
55068;BME280;40965;52.368;9.712;2022-11-04T09:20:35;99897.16;;;10.22;86.82
55068;BME280;40965;52.368;9.712;2022-11-04T09:23:04;99895.34;;;10.24;86.46
55068;BME280;40965;52.368;9.712;2022-11-04T09:25:31;99903.91;;;10.33;86.05
55068;BME280;40965;52.368;9.712;2022-11-04T09:27:58;99906.34;;;10.43;84.69
55068;BME280;40965;52.368;9.712;2022-11-04T09:30:26;99895.72;;;10.51;83.88
55068;BME280;40965;52.368;9.712;2022-11-04T09:32:53;99913.16;;;10.52;83.72
55068;BME280;40965;52.368;9.712;2022-11-04T09:35:19;99907.03;;;10.53;83.78
55068;BME280;40965;52.368;9.712;2022-11-04T09:37:46;99904.41;;;10.53;83.31
55068;BME280;40965;52.368;9.712;2022-11-04T09:40:15;99907.03;;;10.52;83.89
55068;BME280;40965;52.368;9.712;2022-11-04T09:45:57;99903.28;;;10.65;83.00
55068;BME280;40965;52.368;9.712;2022-11-04T09:48:32;99898.22;;;10.57;83.25
55068;BME280;40965;52.368;9.712;2022-11-04T09:51:04;99905.22;;;10.55;83.80
55068;BME280;40965;52.368;9.712;2022-11-04T09:53:39;99908.69;;;10.57;84.05
55068;BME280;40965;52.368;9.712;2022-11-04T09:56:17;99904.22;;;10.63;83.55
55068;BME280;40965;52.368;9.712;2022-11-04T09:58:47;99901.59;;;10.61;83.71
55068;BME280;40965;52.368;9.712;2022-11-04T10:04:03;99893.38;;;10.80;84.28
55068;BME280;40965;52.368;9.712;2022-11-04T10:07:13;99887.75;;;10.97;82.10
55068;BME280;40965;52.368;9.712;2022-11-04T10:10:28;99883.34;;;10.99;81.53
55068;BME280;40965;52.368;9.712;2022-11-04T10:15:45;99890.00;;;11.14;80.34
55068;BME280;40965;52.368;9.712;2022-11-04T10:24:45;99897.81;;;11.15;79.27
55068;BME280;40965;52.368;9.712;2022-11-04T10:27:23;99907.31;;;11.19;78.52
55068;BME280;40965;52.368;9.712;2022-11-04T10:29:56;99903.97;;;11.13;78.32
55068;BME280;40965;52.368;9.712;2022-11-04T10:32:31;99906.69;;;11.09;78.53
55068;BME280;40965;52.368;9.712;2022-11-04T10:35:14;99919.88;;;11.05;78.82
55068;BME280;40965;52.368;9.712;2022-11-04T10:37:51;99937.00;;;11.18;78.61
55068;BME280;40965;52.368;9.712;2022-11-04T10:40:35;99927.69;;;11.44;77.50
55068;BME280;40965;52.368;9.712;2022-11-04T10:43:07;99932.59;;;11.58;76.44
55068;BME280;40965;52.368;9.712;2022-11-04T10:45:45;99937.69;;;11.64;76.29
55068;BME280;40965;52.368;9.712;2022-11-04T10:48:26;99928.22;;;11.58;76.08
55068;BME280;40965;52.368;9.712;2022-11-04T10:50:58;99937.09;;;11.53;75.65
55068;BME280;40965;52.368;9.712;2022-11-04T10:53:26;99939.72;;;11.53;76.21
55068;BME280;40965;52.368;9.712;2022-11-04T10:56:48;99942.28;;;11.54;76.06
55068;BME280;40965;52.368;9.712;2022-11-04T10:59:13;99956.66;;;11.74;75.59
55068;BME280;40965;52.368;9.712;2022-11-04T11:02:04;99957.19;;;11.88;75.19
55068;BME280;40965;52.368;9.712;2022-11-04T11:04:34;99954.41;;;11.95;74.96
55068;BME280;40965;52.368;9.712;2022-11-04T11:07:04;99956.19;;;11.92;74.23
55068;BME280;40965;52.368;9.712;2022-11-04T11:09:49;99953.66;;;11.89;73.73
55068;BME280;40965;52.368;9.712;2022-11-04T11:12:23;99948.31;;;11.92;74.30
55068;BME280;40965;52.368;9.712;2022-11-04T11:14:55;99940.22;;;12.03;73.91
55068;BME280;40965;52.368;9.712;2022-11-04T11:17:34;99944.56;;;12.04;72.98
55068;BME280;40965;52.368;9.712;2022-11-04T11:22:42;99929.91;;;11.94;73.70
55068;BME280;40965;52.368;9.712;2022-11-04T11:25:34;99934.31;;;11.94;74.13
55068;BME280;40965;52.368;9.712;2022-11-04T11:28:23;99932.38;;;12.03;73.43
55068;BME280;40965;52.368;9.712;2022-11-04T11:33:22;99928.59;;;12.14;72.74
55068;BME280;40965;52.368;9.712;2022-11-04T11:35:52;99929.59;;;12.08;73.34
55068;BME280;40965;52.368;9.712;2022-11-04T11:38:30;99924.69;;;11.96;72.83
55068;BME280;40965;52.368;9.712;2022-11-04T11:41:12;99936.03;;;11.96;72.72
55068;BME280;40965;52.368;9.712;2022-11-04T11:43:44;99937.75;;;11.97;72.23
55068;BME280;40965;52.368;9.712;2022-11-04T11:46:23;99943.91;;;11.95;72.50
55068;BME280;40965;52.368;9.712;2022-11-04T11:48:54;99944.00;;;11.91;72.40
55068;BME280;40965;52.368;9.712;2022-11-04T11:51:45;99957.72;;;12.03;71.72
55068;BME280;40965;52.368;9.712;2022-11-04T11:54:16;99950.38;;;12.16;71.06
55068;BME280;40965;52.368;9.712;2022-11-04T11:56:55;99951.53;;;12.05;71.61
55068;BME280;40965;52.368;9.712;2022-11-04T11:59:46;99950.75;;;12.02;71.76
55068;BME280;40965;52.368;9.712;2022-11-04T12:02:41;99948.16;;;12.00;72.04
55068;BME280;40965;52.368;9.712;2022-11-04T12:05:13;99951.78;;;11.96;72.18
55068;BME280;40965;52.368;9.712;2022-11-04T12:07:51;99960.19;;;12.09;71.95
55068;BME280;40965;52.368;9.712;2022-11-04T12:10:34;99959.88;;;12.20;71.41
55068;BME280;40965;52.368;9.712;2022-11-04T12:13:13;99959.69;;;12.28;71.24
55068;BME280;40965;52.368;9.712;2022-11-04T12:15:56;99956.25;;;12.26;72.05
55068;BME280;40965;52.368;9.712;2022-11-04T12:21:28;99958.84;;;12.27;71.58
55068;BME280;40965;52.368;9.712;2022-11-04T12:30:28;99956.00;;;12.35;71.38
55068;BME280;40965;52.368;9.712;2022-11-04T12:33:31;99956.16;;;12.29;71.34
55068;BME280;40965;52.368;9.712;2022-11-04T12:36:23;99958.44;;;12.08;72.05
55068;BME280;40965;52.368;9.712;2022-11-04T12:44:31;99956.97;;;11.98;73.01
55068;BME280;40965;52.368;9.712;2022-11-04T12:47:06;99957.88;;;11.97;72.60
55068;BME280;40965;52.368;9.712;2022-11-04T12:50:08;99970.69;;;12.09;72.56
55068;BME280;40965;52.368;9.712;2022-11-04T12:53:09;99972.28;;;12.15;71.17
55068;BME280;40965;52.368;9.712;2022-11-04T13:01:33;99977.31;;;12.22;70.66
55068;BME280;40965;52.368;9.712;2022-11-04T13:06:52;99983.16;;;12.34;71.30
55068;BME280;40965;52.368;9.712;2022-11-04T13:09:53;99989.78;;;12.47;70.15
55068;BME280;40965;52.368;9.712;2022-11-04T13:12:24;99992.59;;;12.39;70.45
55068;BME280;40965;52.368;9.712;2022-11-04T13:14:59;100000.63;;;12.35;71.25
55068;BME280;40965;52.368;9.712;2022-11-04T13:17:33;100004.00;;;12.40;70.96
55068;BME280;40965;52.368;9.712;2022-11-04T13:22:41;100011.91;;;12.37;70.61
55068;BME280;40965;52.368;9.712;2022-11-04T13:27:46;100018.69;;;12.13;71.43
55068;BME280;40965;52.368;9.712;2022-11-04T13:30:18;100016.31;;;12.03;71.39
55068;BME280;40965;52.368;9.712;2022-11-04T13:33:01;100014.44;;;12.07;71.73
55068;BME280;40965;52.368;9.712;2022-11-04T13:35:50;100018.50;;;12.19;71.30
55068;BME280;40965;52.368;9.712;2022-11-04T13:38:26;100021.91;;;12.22;71.46
55068;BME280;40965;52.368;9.712;2022-11-04T13:41:31;100031.63;;;12.20;71.75
55068;BME280;40965;52.368;9.712;2022-11-04T13:44:28;100027.47;;;12.12;72.33
55068;BME280;40965;52.368;9.712;2022-11-04T13:47:02;100031.25;;;12.00;73.07
55068;BME280;40965;52.368;9.712;2022-11-04T13:49:39;100030.50;;;11.93;73.68
55068;BME280;40965;52.368;9.712;2022-11-04T13:52:10;100036.13;;;11.78;74.57
55068;BME280;40965;52.368;9.712;2022-11-04T13:57:27;100038.66;;;11.81;74.36
55068;BME280;40965;52.368;9.712;2022-11-04T14:02:44;100031.78;;;11.77;75.01
55068;BME280;40965;52.368;9.712;2022-11-04T14:18:47;100058.72;;;11.83;75.10
55068;BME280;40965;52.368;9.712;2022-11-04T14:21:19;100052.78;;;11.75;75.18
55068;BME280;40965;52.368;9.712;2022-11-04T14:23:49;100053.97;;;11.62;75.71
55068;BME280;40965;52.368;9.712;2022-11-04T14:26:27;100070.66;;;11.57;76.23
55068;BME280;40965;52.368;9.712;2022-11-04T14:29:05;100074.19;;;11.55;76.63
55068;BME280;40965;52.368;9.712;2022-11-04T14:31:36;100074.31;;;11.50;77.19
55068;BME280;40965;52.368;9.712;2022-11-04T14:34:05;100077.97;;;11.43;76.65
55068;BME280;40965;52.368;9.712;2022-11-04T14:36:37;100079.81;;;11.38;77.31
55068;BME280;40965;52.368;9.712;2022-11-04T14:44:17;100092.28;;;11.28;77.91
55068;BME280;40965;52.368;9.712;2022-11-04T14:46:47;100089.81;;;11.20;78.26
55068;BME280;40965;52.368;9.712;2022-11-04T14:49:36;100088.03;;;11.21;78.78
55068;BME280;40965;52.368;9.712;2022-11-04T14:52:15;100091.50;;;11.23;78.43
55068;BME280;40965;52.368;9.712;2022-11-04T14:54:48;100098.50;;;11.22;78.75
55068;BME280;40965;52.368;9.712;2022-11-04T14:57:20;100092.44;;;11.20;79.15
55068;BME280;40965;52.368;9.712;2022-11-04T14:59:50;100095.97;;;11.18;79.40
55068;BME280;40965;52.368;9.712;2022-11-04T15:02:24;100098.63;;;11.16;79.72
55068;BME280;40965;52.368;9.712;2022-11-04T15:04:59;100096.81;;;11.20;80.19
55068;BME280;40965;52.368;9.712;2022-11-04T15:07:38;100101.03;;;11.27;80.01